sensor_id;sensor_type;location;lat;lon;timestamp;temperature;humidity
77829;DHT22;67019;51.034;3.728;2023-12-20T00:00:45;5.90;99.90
77829;DHT22;67019;51.034;3.728;2023-12-20T00:03:12;5.80;99.90
77829;DHT22;67019;51.034;3.728;2023-12-20T00:05:40;5.80;99.90
77829;DHT22;67019;51.034;3.728;2023-12-20T00:08:08;5.70;99.90
77829;DHT22;67019;51.034;3.728;2023-12-20T00:10:37;5.80;99.90
77829;DHT22;67019;51.034;3.728;2023-12-20T00:13:04;5.70;99.90
77829;DHT22;67019;51.034;3.728;2023-12-20T00:15:37;5.60;99.90
77829;DHT22;67019;51.034;3.728;2023-12-20T00:18:04;5.70;99.90
77829;DHT22;67019;51.034;3.728;2023-12-20T00:20:32;5.70;99.90
77829;DHT22;67019;51.034;3.728;2023-12-20T00:23:00;5.70;99.90
77829;DHT22;67019;51.034;3.728;2023-12-20T00:25:31;5.60;99.90
77829;DHT22;67019;51.034;3.728;2023-12-20T00:28:00;5.60;99.90
77829;DHT22;67019;51.034;3.728;2023-12-20T00:30:28;5.70;99.90
77829;DHT22;67019;51.034;3.728;2023-12-20T00:32:56;5.70;99.90
77829;DHT22;67019;51.034;3.728;2023-12-20T00:35:24;5.80;99.90
77829;DHT22;67019;51.034;3.728;2023-12-20T00:37:53;5.80;99.90
77829;DHT22;67019;51.034;3.728;2023-12-20T00:40:21;5.70;99.90
77829;DHT22;67019;51.034;3.728;2023-12-20T00:42:51;5.70;99.90
77829;DHT22;67019;51.034;3.728;2023-12-20T00:45:19;5.90;99.90
77829;DHT22;67019;51.034;3.728;2023-12-20T00:47:47;5.70;99.90
77829;DHT22;67019;51.034;3.728;2023-12-20T00:50:16;5.60;99.90
77829;DHT22;67019;51.034;3.728;2023-12-20T00:52:44;5.60;99.90
77829;DHT22;67019;51.034;3.728;2023-12-20T00:55:12;5.50;99.90
77829;DHT22;67019;51.034;3.728;2023-12-20T00:57:41;5.50;99.90
77829;DHT22;67019;51.034;3.728;2023-12-20T01:00:09;5.50;99.90
77829;DHT22;67019;51.034;3.728;2023-12-20T01:02:37;5.60;99.90
77829;DHT22;67019;51.034;3.728;2023-12-20T01:05:05;5.60;99.90
77829;DHT22;67019;51.034;3.728;2023-12-20T01:07:36;5.60;99.90
77829;DHT22;67019;51.034;3.728;2023-12-20T01:10:03;5.70;99.90
77829;DHT22;67019;51.034;3.728;2023-12-20T01:12:31;6.60;99.90
77829;DHT22;67019;51.034;3.728;2023-12-20T01:14:59;5.60;99.90
77829;DHT22;67019;51.034;3.728;2023-12-20T01:17:26;5.60;99.90
77829;DHT22;67019;51.034;3.728;2023-12-20T01:19:54;5.60;99.90
77829;DHT22;67019;51.034;3.728;2023-12-20T01:22:22;5.70;99.90
77829;DHT22;67019;51.034;3.728;2023-12-20T01:24:49;5.80;99.90
77829;DHT22;67019;51.034;3.728;2023-12-20T01:27:17;5.80;99.90
77829;DHT22;67019;51.034;3.728;2023-12-20T01:29:45;5.90;99.90
77829;DHT22;67019;51.034;3.728;2023-12-20T01:32:13;6.10;99.90
77829;DHT22;67019;51.034;3.728;2023-12-20T01:34:40;6.00;99.90
77829;DHT22;67019;51.034;3.728;2023-12-20T01:37:08;5.90;99.90
77829;DHT22;67019;51.034;3.728;2023-12-20T01:39:35;5.90;99.90
77829;DHT22;67019;51.034;3.728;2023-12-20T01:42:03;5.90;99.90
77829;DHT22;67019;51.034;3.728;2023-12-20T01:44:31;5.90;99.90
77829;DHT22;67019;51.034;3.728;2023-12-20T01:47:04;5.90;99.90
77829;DHT22;67019;51.034;3.728;2023-12-20T01:49:32;5.80;99.90
77829;DHT22;67019;51.034;3.728;2023-12-20T01:51:59;5.90;99.90
77829;DHT22;67019;51.034;3.728;2023-12-20T01:54:27;5.90;99.90
77829;DHT22;67019;51.034;3.728;2023-12-20T01:56:55;5.90;99.90
77829;DHT22;67019;51.034;3.728;2023-12-20T01:59:22;6.00;99.90
77829;DHT22;67019;51.034;3.728;2023-12-20T02:01:52;6.00;99.90
77829;DHT22;67019;51.034;3.728;2023-12-20T02:04:20;6.00;99.90
77829;DHT22;67019;51.034;3.728;2023-12-20T02:06:48;6.00;99.90
77829;DHT22;67019;51.034;3.728;2023-12-20T02:09:19;6.00;99.90
77829;DHT22;67019;51.034;3.728;2023-12-20T02:11:47;5.90;99.90
77829;DHT22;67019;51.034;3.728;2023-12-20T02:14:15;6.00;99.90
77829;DHT22;67019;51.034;3.728;2023-12-20T02:16:42;6.00;99.90
77829;DHT22;67019;51.034;3.728;2023-12-20T02:19:14;6.00;99.90
77829;DHT22;67019;51.034;3.728;2023-12-20T02:21:42;6.00;99.90
77829;DHT22;67019;51.034;3.728;2023-12-20T02:24:12;6.00;99.90
77829;DHT22;67019;51.034;3.728;2023-12-20T02:26:40;6.00;99.90
77829;DHT22;67019;51.034;3.728;2023-12-20T02:29:08;6.10;99.90
77829;DHT22;67019;51.034;3.728;2023-12-20T02:31:36;6.20;99.90
77829;DHT22;67019;51.034;3.728;2023-12-20T02:34:07;6.20;99.90
77829;DHT22;67019;51.034;3.728;2023-12-20T02:36:34;6.10;99.90
77829;DHT22;67019;51.034;3.728;2023-12-20T02:39:02;6.10;99.90
77829;DHT22;67019;51.034;3.728;2023-12-20T02:41:30;6.10;99.90
77829;DHT22;67019;51.034;3.728;2023-12-20T02:43:58;6.10;99.90
77829;DHT22;67019;51.034;3.728;2023-12-20T02:46:26;6.20;99.90
77829;DHT22;67019;51.034;3.728;2023-12-20T02:48:55;6.20;99.90
77829;DHT22;67019;51.034;3.728;2023-12-20T02:51:23;6.10;99.90
77829;DHT22;67019;51.034;3.728;2023-12-20T02:53:50;6.10;99.90
77829;DHT22;67019;51.034;3.728;2023-12-20T02:56:18;6.20;99.90
77829;DHT22;67019;51.034;3.728;2023-12-20T02:58:45;6.20;99.90
77829;DHT22;67019;51.034;3.728;2023-12-20T03:01:13;6.20;99.90
77829;DHT22;67019;51.034;3.728;2023-12-20T03:03:40;6.20;99.90
77829;DHT22;67019;51.034;3.728;2023-12-20T03:06:08;6.20;99.90
77829;DHT22;67019;51.034;3.728;2023-12-20T03:08:37;6.20;99.90
77829;DHT22;67019;51.034;3.728;2023-12-20T03:11:06;6.10;99.90
77829;DHT22;67019;51.034;3.728;2023-12-20T03:13:34;6.20;99.90
77829;DHT22;67019;51.034;3.728;2023-12-20T03:16:07;6.20;99.90
77829;DHT22;67019;51.034;3.728;2023-12-20T03:18:31;6.10;99.90
77829;DHT22;67019;51.034;3.728;2023-12-20T03:20:58;6.20;99.90
77829;DHT22;67019;51.034;3.728;2023-12-20T03:23:26;6.10;99.90
77829;DHT22;67019;51.034;3.728;2023-12-20T03:25:53;6.10;99.90
77829;DHT22;67019;51.034;3.728;2023-12-20T03:28:21;6.10;99.90
77829;DHT22;67019;51.034;3.728;2023-12-20T03:30:51;6.00;99.90
77829;DHT22;67019;51.034;3.728;2023-12-20T03:33:18;6.00;99.90
77829;DHT22;67019;51.034;3.728;2023-12-20T03:35:46;6.00;99.90
77829;DHT22;67019;51.034;3.728;2023-12-20T03:38:14;6.00;99.90
77829;DHT22;67019;51.034;3.728;2023-12-20T03:40:43;6.00;99.90
77829;DHT22;67019;51.034;3.728;2023-12-20T03:43:10;6.00;99.90
77829;DHT22;67019;51.034;3.728;2023-12-20T03:45:38;6.00;99.90
77829;DHT22;67019;51.034;3.728;2023-12-20T03:48:06;6.00;99.90
77829;DHT22;67019;51.034;3.728;2023-12-20T03:50:34;6.00;99.90
77829;DHT22;67019;51.034;3.728;2023-12-20T03:53:02;6.00;99.90
77829;DHT22;67019;51.034;3.728;2023-12-20T03:55:30;5.90;99.90
77829;DHT22;67019;51.034;3.728;2023-12-20T03:57:58;5.90;99.90
77829;DHT22;67019;51.034;3.728;2023-12-20T04:00:30;5.90;99.90
77829;DHT22;67019;51.034;3.728;2023-12-20T04:02:54;6.00;99.90
77829;DHT22;67019;51.034;3.728;2023-12-20T04:05:22;5.90;99.90
77829;DHT22;67019;51.034;3.728;2023-12-20T04:07:50;5.80;99.90
77829;DHT22;67019;51.034;3.728;2023-12-20T04:10:17;5.80;99.90
77829;DHT22;67019;51.034;3.728;2023-12-20T04:12:45;5.90;99.90
77829;DHT22;67019;51.034;3.728;2023-12-20T04:15:14;5.80;99.90
77829;DHT22;67019;51.034;3.728;2023-12-20T04:17:41;5.90;99.90
77829;DHT22;67019;51.034;3.728;2023-12-20T04:20:10;5.90;99.90
77829;DHT22;67019;51.034;3.728;2023-12-20T04:22:37;5.90;99.90
77829;DHT22;67019;51.034;3.728;2023-12-20T04:25:05;5.90;99.90
77829;DHT22;67019;51.034;3.728;2023-12-20T04:27:33;5.90;99.90
77829;DHT22;67019;51.034;3.728;2023-12-20T04:30:00;5.90;99.90
77829;DHT22;67019;51.034;3.728;2023-12-20T04:32:28;5.90;99.90
77829;DHT22;67019;51.034;3.728;2023-12-20T04:34:55;5.90;99.90
77829;DHT22;67019;51.034;3.728;2023-12-20T04:37:23;6.00;99.90
77829;DHT22;67019;51.034;3.728;2023-12-20T04:39:51;5.90;99.90
77829;DHT22;67019;51.034;3.728;2023-12-20T04:42:19;5.80;99.90
77829;DHT22;67019;51.034;3.728;2023-12-20T04:44:46;5.80;99.90
77829;DHT22;67019;51.034;3.728;2023-12-20T04:47:14;5.80;99.90
77829;DHT22;67019;51.034;3.728;2023-12-20T04:49:42;5.80;99.90
77829;DHT22;67019;51.034;3.728;2023-12-20T04:52:09;5.60;99.90
77829;DHT22;67019;51.034;3.728;2023-12-20T04:54:37;5.50;99.90
77829;DHT22;67019;51.034;3.728;2023-12-20T04:57:05;5.40;99.90
77829;DHT22;67019;51.034;3.728;2023-12-20T04:59:32;5.30;99.90
77829;DHT22;67019;51.034;3.728;2023-12-20T05:02:00;5.20;99.90
77829;DHT22;67019;51.034;3.728;2023-12-20T05:04:28;5.10;99.90
77829;DHT22;67019;51.034;3.728;2023-12-20T05:06:55;5.10;99.90
77829;DHT22;67019;51.034;3.728;2023-12-20T05:09:23;5.10;99.90
77829;DHT22;67019;51.034;3.728;2023-12-20T05:11:52;5.00;99.90
77829;DHT22;67019;51.034;3.728;2023-12-20T05:14:20;5.10;99.90
77829;DHT22;67019;51.034;3.728;2023-12-20T05:16:47;5.10;99.90
77829;DHT22;67019;51.034;3.728;2023-12-20T05:19:15;5.20;99.90
77829;DHT22;67019;51.034;3.728;2023-12-20T05:21:43;5.10;99.90
77829;DHT22;67019;51.034;3.728;2023-12-20T05:24:13;5.20;99.90
77829;DHT22;67019;51.034;3.728;2023-12-20T05:26:39;5.20;99.90
77829;DHT22;67019;51.034;3.728;2023-12-20T05:29:07;5.20;99.90
77829;DHT22;67019;51.034;3.728;2023-12-20T05:31:35;5.20;99.90
77829;DHT22;67019;51.034;3.728;2023-12-20T05:34:04;5.30;99.90
77829;DHT22;67019;51.034;3.728;2023-12-20T05:36:31;5.30;99.90
77829;DHT22;67019;51.034;3.728;2023-12-20T05:38:59;5.30;99.90
77829;DHT22;67019;51.034;3.728;2023-12-20T05:41:27;5.40;99.90
77829;DHT22;67019;51.034;3.728;2023-12-20T05:43:54;5.30;99.90
77829;DHT22;67019;51.034;3.728;2023-12-20T05:46:24;5.50;99.90
77829;DHT22;67019;51.034;3.728;2023-12-20T05:48:52;5.50;99.90
77829;DHT22;67019;51.034;3.728;2023-12-20T05:51:19;5.50;99.90
77829;DHT22;67019;51.034;3.728;2023-12-20T05:53:47;5.60;99.90
77829;DHT22;67019;51.034;3.728;2023-12-20T05:56:16;5.60;99.90
77829;DHT22;67019;51.034;3.728;2023-12-20T05:58:43;5.50;99.90
77829;DHT22;67019;51.034;3.728;2023-12-20T06:01:11;5.50;99.90
77829;DHT22;67019;51.034;3.728;2023-12-20T06:03:42;5.50;99.90
77829;DHT22;67019;51.034;3.728;2023-12-20T06:06:10;5.50;99.90
77829;DHT22;67019;51.034;3.728;2023-12-20T06:08:40;5.50;99.90
77829;DHT22;67019;51.034;3.728;2023-12-20T06:11:09;5.40;99.90
77829;DHT22;67019;51.034;3.728;2023-12-20T06:13:37;5.40;99.90
77829;DHT22;67019;51.034;3.728;2023-12-20T06:16:07;5.30;99.90
77829;DHT22;67019;51.034;3.728;2023-12-20T06:18:34;5.30;99.90
77829;DHT22;67019;51.034;3.728;2023-12-20T06:21:04;5.30;99.90
77829;DHT22;67019;51.034;3.728;2023-12-20T06:23:31;5.30;99.90
77829;DHT22;67019;51.034;3.728;2023-12-20T06:25:59;5.30;99.90
77829;DHT22;67019;51.034;3.728;2023-12-20T06:28:27;5.30;99.90
77829;DHT22;67019;51.034;3.728;2023-12-20T06:30:54;5.20;99.90
77829;DHT22;67019;51.034;3.728;2023-12-20T06:33:23;5.20;99.90
77829;DHT22;67019;51.034;3.728;2023-12-20T06:35:51;5.20;99.90
77829;DHT22;67019;51.034;3.728;2023-12-20T06:38:19;5.20;99.90
77829;DHT22;67019;51.034;3.728;2023-12-20T06:40:48;5.20;99.90
77829;DHT22;67019;51.034;3.728;2023-12-20T06:43:15;5.10;99.90
77829;DHT22;67019;51.034;3.728;2023-12-20T06:45:43;5.00;99.90
77829;DHT22;67019;51.034;3.728;2023-12-20T06:48:11;5.10;99.90
77829;DHT22;67019;51.034;3.728;2023-12-20T06:50:42;5.00;99.90
77829;DHT22;67019;51.034;3.728;2023-12-20T06:53:11;5.00;99.90
77829;DHT22;67019;51.034;3.728;2023-12-20T06:55:42;5.00;99.90
77829;DHT22;67019;51.034;3.728;2023-12-20T06:58:11;4.90;99.90
77829;DHT22;67019;51.034;3.728;2023-12-20T07:00:39;5.00;99.90
77829;DHT22;67019;51.034;3.728;2023-12-20T07:03:07;4.90;99.90
77829;DHT22;67019;51.034;3.728;2023-12-20T07:05:37;4.90;99.90
77829;DHT22;67019;51.034;3.728;2023-12-20T07:08:07;4.90;99.90
77829;DHT22;67019;51.034;3.728;2023-12-20T07:10:36;4.80;99.90
77829;DHT22;67019;51.034;3.728;2023-12-20T07:13:04;4.90;99.90
77829;DHT22;67019;51.034;3.728;2023-12-20T07:15:31;4.90;99.90
77829;DHT22;67019;51.034;3.728;2023-12-20T07:18:02;4.90;99.90
77829;DHT22;67019;51.034;3.728;2023-12-20T07:20:28;4.90;99.90
77829;DHT22;67019;51.034;3.728;2023-12-20T07:22:56;4.90;99.90
77829;DHT22;67019;51.034;3.728;2023-12-20T07:25:23;5.00;99.90
77829;DHT22;67019;51.034;3.728;2023-12-20T07:27:51;4.90;99.90
77829;DHT22;67019;51.034;3.728;2023-12-20T07:30:18;4.80;99.90
77829;DHT22;67019;51.034;3.728;2023-12-20T07:32:46;4.90;99.90
77829;DHT22;67019;51.034;3.728;2023-12-20T07:35:16;4.80;99.90
77829;DHT22;67019;51.034;3.728;2023-12-20T07:37:47;4.70;99.90
77829;DHT22;67019;51.034;3.728;2023-12-20T07:40:14;4.70;99.90
77829;DHT22;67019;51.034;3.728;2023-12-20T07:42:43;4.70;99.90
77829;DHT22;67019;51.034;3.728;2023-12-20T07:45:11;4.70;99.90
77829;DHT22;67019;51.034;3.728;2023-12-20T07:47:38;4.70;99.90
77829;DHT22;67019;51.034;3.728;2023-12-20T07:50:07;4.70;99.90
77829;DHT22;67019;51.034;3.728;2023-12-20T07:52:35;4.70;99.90
77829;DHT22;67019;51.034;3.728;2023-12-20T07:55:02;4.70;99.90
77829;DHT22;67019;51.034;3.728;2023-12-20T07:57:30;4.70;99.90
77829;DHT22;67019;51.034;3.728;2023-12-20T07:59:58;4.70;99.90
77829;DHT22;67019;51.034;3.728;2023-12-20T08:02:26;4.70;99.90
77829;DHT22;67019;51.034;3.728;2023-12-20T08:04:55;4.80;99.90
77829;DHT22;67019;51.034;3.728;2023-12-20T08:07:22;4.80;99.90
77829;DHT22;67019;51.034;3.728;2023-12-20T08:09:50;4.80;99.90
77829;DHT22;67019;51.034;3.728;2023-12-20T08:12:18;4.80;99.90
77829;DHT22;67019;51.034;3.728;2023-12-20T08:14:46;4.80;99.90
77829;DHT22;67019;51.034;3.728;2023-12-20T08:17:15;4.80;99.90
77829;DHT22;67019;51.034;3.728;2023-12-20T08:19:46;4.80;99.90
77829;DHT22;67019;51.034;3.728;2023-12-20T08:22:13;4.70;99.90
77829;DHT22;67019;51.034;3.728;2023-12-20T08:24:41;4.80;99.90
77829;DHT22;67019;51.034;3.728;2023-12-20T08:27:09;4.80;99.90
77829;DHT22;67019;51.034;3.728;2023-12-20T08:29:36;4.80;99.90
77829;DHT22;67019;51.034;3.728;2023-12-20T08:32:04;4.80;99.90
77829;DHT22;67019;51.034;3.728;2023-12-20T08:34:32;4.70;99.90
77829;DHT22;67019;51.034;3.728;2023-12-20T08:37:00;4.80;99.90
77829;DHT22;67019;51.034;3.728;2023-12-20T08:39:27;4.80;99.90
77829;DHT22;67019;51.034;3.728;2023-12-20T08:41:56;4.90;99.90
77829;DHT22;67019;51.034;3.728;2023-12-20T08:44:24;4.90;99.90
77829;DHT22;67019;51.034;3.728;2023-12-20T08:46:52;5.00;99.90
77829;DHT22;67019;51.034;3.728;2023-12-20T08:49:23;4.90;99.90
77829;DHT22;67019;51.034;3.728;2023-12-20T08:51:51;5.00;99.90
77829;DHT22;67019;51.034;3.728;2023-12-20T08:54:19;5.00;99.90
77829;DHT22;67019;51.034;3.728;2023-12-20T08:56:47;5.00;99.90
77829;DHT22;67019;51.034;3.728;2023-12-20T08:59:14;5.10;99.90
77829;DHT22;67019;51.034;3.728;2023-12-20T09:01:42;5.20;99.90
77829;DHT22;67019;51.034;3.728;2023-12-20T09:04:10;5.20;99.90
77829;DHT22;67019;51.034;3.728;2023-12-20T09:06:37;5.30;99.90
77829;DHT22;67019;51.034;3.728;2023-12-20T09:09:05;5.30;99.90
77829;DHT22;67019;51.034;3.728;2023-12-20T09:11:34;5.30;99.90
77829;DHT22;67019;51.034;3.728;2023-12-20T09:14:04;5.50;99.90
77829;DHT22;67019;51.034;3.728;2023-12-20T09:16:46;5.50;99.90
77829;DHT22;67019;51.034;3.728;2023-12-20T09:19:01;5.60;99.90
77829;DHT22;67019;51.034;3.728;2023-12-20T09:21:29;5.60;99.90
77829;DHT22;67019;51.034;3.728;2023-12-20T09:23:56;5.70;99.90
77829;DHT22;67019;51.034;3.728;2023-12-20T09:26:24;5.60;99.90
77829;DHT22;67019;51.034;3.728;2023-12-20T09:28:51;5.60;99.90
77829;DHT22;67019;51.034;3.728;2023-12-20T09:31:19;5.60;99.90
77829;DHT22;67019;51.034;3.728;2023-12-20T09:33:47;5.60;99.90
77829;DHT22;67019;51.034;3.728;2023-12-20T09:36:14;5.60;99.90
77829;DHT22;67019;51.034;3.728;2023-12-20T09:38:42;5.70;99.90
77829;DHT22;67019;51.034;3.728;2023-12-20T09:41:10;5.70;99.90
77829;DHT22;67019;51.034;3.728;2023-12-20T09:43:38;5.80;99.90
77829;DHT22;67019;51.034;3.728;2023-12-20T09:46:06;6.00;99.90
77829;DHT22;67019;51.034;3.728;2023-12-20T09:48:36;6.20;99.90
77829;DHT22;67019;51.034;3.728;2023-12-20T09:51:03;6.30;99.90
77829;DHT22;67019;51.034;3.728;2023-12-20T09:53:33;6.50;99.90
77829;DHT22;67019;51.034;3.728;2023-12-20T09:56:01;6.60;99.90
77829;DHT22;67019;51.034;3.728;2023-12-20T09:58:29;6.60;99.90
77829;DHT22;67019;51.034;3.728;2023-12-20T10:00:57;6.60;99.90
77829;DHT22;67019;51.034;3.728;2023-12-20T10:03:26;6.70;99.90
77829;DHT22;67019;51.034;3.728;2023-12-20T10:05:56;6.80;99.90
77829;DHT22;67019;51.034;3.728;2023-12-20T10:08:25;6.80;99.90
77829;DHT22;67019;51.034;3.728;2023-12-20T10:10:53;6.80;99.90
77829;DHT22;67019;51.034;3.728;2023-12-20T10:13:21;6.80;99.90
77829;DHT22;67019;51.034;3.728;2023-12-20T10:15:50;6.90;99.90
77829;DHT22;67019;51.034;3.728;2023-12-20T10:18:17;6.90;99.90
77829;DHT22;67019;51.034;3.728;2023-12-20T10:20:45;7.00;99.90
77829;DHT22;67019;51.034;3.728;2023-12-20T10:23:15;7.00;99.90
77829;DHT22;67019;51.034;3.728;2023-12-20T10:25:49;7.00;99.90
77829;DHT22;67019;51.034;3.728;2023-12-20T10:28:16;7.00;99.90
77829;DHT22;67019;51.034;3.728;2023-12-20T10:30:48;7.00;99.90
77829;DHT22;67019;51.034;3.728;2023-12-20T10:33:27;7.10;99.90
77829;DHT22;67019;51.034;3.728;2023-12-20T10:35:56;7.00;99.90
77829;DHT22;67019;51.034;3.728;2023-12-20T10:38:23;7.10;99.90
77829;DHT22;67019;51.034;3.728;2023-12-20T10:40:54;7.10;99.90
77829;DHT22;67019;51.034;3.728;2023-12-20T10:43:22;7.10;99.90
77829;DHT22;67019;51.034;3.728;2023-12-20T10:45:52;7.20;99.90
77829;DHT22;67019;51.034;3.728;2023-12-20T10:48:21;7.20;99.90
77829;DHT22;67019;51.034;3.728;2023-12-20T10:50:51;7.20;99.90
77829;DHT22;67019;51.034;3.728;2023-12-20T10:53:19;7.30;99.90
77829;DHT22;67019;51.034;3.728;2023-12-20T10:55:49;7.30;99.90
77829;DHT22;67019;51.034;3.728;2023-12-20T10:58:20;7.30;99.90
77829;DHT22;67019;51.034;3.728;2023-12-20T11:00:47;7.30;99.90
77829;DHT22;67019;51.034;3.728;2023-12-20T11:03:18;7.40;99.90
77829;DHT22;67019;51.034;3.728;2023-12-20T11:06:03;7.50;99.90
77829;DHT22;67019;51.034;3.728;2023-12-20T11:08:39;7.50;99.90
77829;DHT22;67019;51.034;3.728;2023-12-20T11:11:13;7.60;99.90
77829;DHT22;67019;51.034;3.728;2023-12-20T11:13:44;7.60;99.90
77829;DHT22;67019;51.034;3.728;2023-12-20T11:16:11;7.60;99.90
77829;DHT22;67019;51.034;3.728;2023-12-20T11:18:41;7.70;99.90
77829;DHT22;67019;51.034;3.728;2023-12-20T11:21:09;7.80;99.90
77829;DHT22;67019;51.034;3.728;2023-12-20T11:23:38;7.90;99.90
77829;DHT22;67019;51.034;3.728;2023-12-20T11:26:06;8.00;99.90
77829;DHT22;67019;51.034;3.728;2023-12-20T11:28:33;8.00;99.90
77829;DHT22;67019;51.034;3.728;2023-12-20T11:31:03;8.00;99.90
77829;DHT22;67019;51.034;3.728;2023-12-20T11:33:36;8.10;99.90
77829;DHT22;67019;51.034;3.728;2023-12-20T11:36:12;8.10;99.90
77829;DHT22;67019;51.034;3.728;2023-12-20T11:38:37;8.10;99.90
77829;DHT22;67019;51.034;3.728;2023-12-20T11:41:08;8.10;99.90
77829;DHT22;67019;51.034;3.728;2023-12-20T11:43:38;8.20;99.90
77829;DHT22;67019;51.034;3.728;2023-12-20T11:46:07;8.10;99.90
77829;DHT22;67019;51.034;3.728;2023-12-20T11:48:38;8.20;99.90
77829;DHT22;67019;51.034;3.728;2023-12-20T11:51:12;8.20;99.90
77829;DHT22;67019;51.034;3.728;2023-12-20T11:53:41;8.30;99.90
77829;DHT22;67019;51.034;3.728;2023-12-20T11:56:10;8.20;99.90
77829;DHT22;67019;51.034;3.728;2023-12-20T11:58:37;8.20;99.90
77829;DHT22;67019;51.034;3.728;2023-12-20T12:01:07;8.20;99.90
77829;DHT22;67019;51.034;3.728;2023-12-20T12:03:35;8.20;99.90
77829;DHT22;67019;51.034;3.728;2023-12-20T12:06:03;8.20;99.90
77829;DHT22;67019;51.034;3.728;2023-12-20T12:08:33;8.20;99.90
77829;DHT22;67019;51.034;3.728;2023-12-20T12:11:00;8.10;99.90
77829;DHT22;67019;51.034;3.728;2023-12-20T12:13:28;8.20;99.90
77829;DHT22;67019;51.034;3.728;2023-12-20T12:15:56;8.20;99.90
77829;DHT22;67019;51.034;3.728;2023-12-20T12:18:24;8.20;99.90
77829;DHT22;67019;51.034;3.728;2023-12-20T12:20:59;8.20;99.90
77829;DHT22;67019;51.034;3.728;2023-12-20T12:23:23;8.20;99.90
77829;DHT22;67019;51.034;3.728;2023-12-20T12:25:51;8.20;99.90
77829;DHT22;67019;51.034;3.728;2023-12-20T12:28:19;8.20;99.90
77829;DHT22;67019;51.034;3.728;2023-12-20T12:30:59;8.10;99.90
77829;DHT22;67019;51.034;3.728;2023-12-20T12:33:29;8.20;99.90
77829;DHT22;67019;51.034;3.728;2023-12-20T12:35:57;8.20;99.90
77829;DHT22;67019;51.034;3.728;2023-12-20T12:38:28;8.30;99.90
77829;DHT22;67019;51.034;3.728;2023-12-20T12:40:58;8.40;99.90
77829;DHT22;67019;51.034;3.728;2023-12-20T12:43:25;8.50;99.90
77829;DHT22;67019;51.034;3.728;2023-12-20T12:45:56;8.60;99.90
77829;DHT22;67019;51.034;3.728;2023-12-20T12:48:25;8.70;99.90
77829;DHT22;67019;51.034;3.728;2023-12-20T12:50:54;9.00;99.90
77829;DHT22;67019;51.034;3.728;2023-12-20T12:53:23;9.00;99.90
77829;DHT22;67019;51.034;3.728;2023-12-20T12:55:53;9.00;99.90
77829;DHT22;67019;51.034;3.728;2023-12-20T12:58:21;9.00;99.90
77829;DHT22;67019;51.034;3.728;2023-12-20T13:00:49;9.00;99.90
77829;DHT22;67019;51.034;3.728;2023-12-20T13:03:17;9.00;99.90
77829;DHT22;67019;51.034;3.728;2023-12-20T13:05:44;9.00;99.90
77829;DHT22;67019;51.034;3.728;2023-12-20T13:08:14;8.90;99.90
77829;DHT22;67019;51.034;3.728;2023-12-20T13:10:44;8.90;99.90
77829;DHT22;67019;51.034;3.728;2023-12-20T13:13:16;8.90;99.90
77829;DHT22;67019;51.034;3.728;2023-12-20T13:15:41;8.90;99.90
77829;DHT22;67019;51.034;3.728;2023-12-20T13:18:08;8.90;99.90
77829;DHT22;67019;51.034;3.728;2023-12-20T13:23:08;8.90;99.90
77829;DHT22;67019;51.034;3.728;2023-12-20T13:25:39;9.00;99.90
77829;DHT22;67019;51.034;3.728;2023-12-20T13:28:06;9.00;99.90
77829;DHT22;67019;51.034;3.728;2023-12-20T13:30:34;9.00;99.90
77829;DHT22;67019;51.034;3.728;2023-12-20T13:33:04;8.90;99.90
77829;DHT22;67019;51.034;3.728;2023-12-20T13:35:55;9.00;99.90
77829;DHT22;67019;51.034;3.728;2023-12-20T13:38:19;8.90;99.90
77829;DHT22;67019;51.034;3.728;2023-12-20T13:40:47;9.00;99.90
77829;DHT22;67019;51.034;3.728;2023-12-20T13:43:16;9.00;99.90
77829;DHT22;67019;51.034;3.728;2023-12-20T13:45:45;8.90;99.90
77829;DHT22;67019;51.034;3.728;2023-12-20T13:48:14;8.90;99.90
77829;DHT22;67019;51.034;3.728;2023-12-20T13:50:48;8.90;99.90
77829;DHT22;67019;51.034;3.728;2023-12-20T13:53:16;8.90;99.90
77829;DHT22;67019;51.034;3.728;2023-12-20T13:55:44;8.90;99.90
77829;DHT22;67019;51.034;3.728;2023-12-20T13:58:12;8.90;99.90
77829;DHT22;67019;51.034;3.728;2023-12-20T14:00:40;8.90;99.90
77829;DHT22;67019;51.034;3.728;2023-12-20T14:03:08;8.90;99.90
77829;DHT22;67019;51.034;3.728;2023-12-20T14:05:36;8.90;99.90
77829;DHT22;67019;51.034;3.728;2023-12-20T14:08:04;8.90;99.90
77829;DHT22;67019;51.034;3.728;2023-12-20T14:10:31;8.90;99.90
77829;DHT22;67019;51.034;3.728;2023-12-20T14:12:59;8.90;99.90
77829;DHT22;67019;51.034;3.728;2023-12-20T14:15:27;8.90;99.90
77829;DHT22;67019;51.034;3.728;2023-12-20T14:17:54;8.90;99.90
77829;DHT22;67019;51.034;3.728;2023-12-20T14:20:23;9.00;99.90
77829;DHT22;67019;51.034;3.728;2023-12-20T14:22:55;9.00;99.90
77829;DHT22;67019;51.034;3.728;2023-12-20T14:25:24;9.00;99.90
77829;DHT22;67019;51.034;3.728;2023-12-20T14:27:51;9.00;99.90
77829;DHT22;67019;51.034;3.728;2023-12-20T14:30:18;8.90;99.90
77829;DHT22;67019;51.034;3.728;2023-12-20T14:32:46;8.90;99.90
77829;DHT22;67019;51.034;3.728;2023-12-20T14:35:14;9.00;99.90
77829;DHT22;67019;51.034;3.728;2023-12-20T14:37:42;8.90;99.90
77829;DHT22;67019;51.034;3.728;2023-12-20T14:40:11;9.00;99.90
77829;DHT22;67019;51.034;3.728;2023-12-20T14:42:45;8.90;99.90
77829;DHT22;67019;51.034;3.728;2023-12-20T14:45:14;9.00;99.90
77829;DHT22;67019;51.034;3.728;2023-12-20T14:47:43;9.00;99.90
77829;DHT22;67019;51.034;3.728;2023-12-20T14:50:11;8.90;99.90
77829;DHT22;67019;51.034;3.728;2023-12-20T14:52:45;8.90;99.90
77829;DHT22;67019;51.034;3.728;2023-12-20T14:55:13;8.90;99.90
77829;DHT22;67019;51.034;3.728;2023-12-20T14:57:41;8.90;99.90
77829;DHT22;67019;51.034;3.728;2023-12-20T15:00:10;8.90;99.90
77829;DHT22;67019;51.034;3.728;2023-12-20T15:02:39;8.90;99.90
77829;DHT22;67019;51.034;3.728;2023-12-20T15:05:07;8.90;99.90
77829;DHT22;67019;51.034;3.728;2023-12-20T15:07:35;8.90;99.90
77829;DHT22;67019;51.034;3.728;2023-12-20T15:10:03;8.90;99.90
77829;DHT22;67019;51.034;3.728;2023-12-20T15:12:31;8.90;99.90
77829;DHT22;67019;51.034;3.728;2023-12-20T15:15:03;8.90;99.90
77829;DHT22;67019;51.034;3.728;2023-12-20T15:17:31;8.80;99.90
77829;DHT22;67019;51.034;3.728;2023-12-20T15:19:59;8.80;99.90
77829;DHT22;67019;51.034;3.728;2023-12-20T15:22:27;8.80;99.90
77829;DHT22;67019;51.034;3.728;2023-12-20T15:24:54;8.80;99.90
77829;DHT22;67019;51.034;3.728;2023-12-20T15:27:22;8.70;99.90
77829;DHT22;67019;51.034;3.728;2023-12-20T15:29:50;8.80;99.90
77829;DHT22;67019;51.034;3.728;2023-12-20T15:32:18;8.80;99.90
77829;DHT22;67019;51.034;3.728;2023-12-20T15:34:46;8.90;99.90
77829;DHT22;67019;51.034;3.728;2023-12-20T15:37:13;8.80;99.90
77829;DHT22;67019;51.034;3.728;2023-12-20T15:39:44;8.80;99.90
77829;DHT22;67019;51.034;3.728;2023-12-20T15:42:12;8.80;99.90
77829;DHT22;67019;51.034;3.728;2023-12-20T15:44:40;8.70;99.90
77829;DHT22;67019;51.034;3.728;2023-12-20T15:47:08;8.70;99.90
77829;DHT22;67019;51.034;3.728;2023-12-20T15:49:37;8.70;99.90
77829;DHT22;67019;51.034;3.728;2023-12-20T15:52:06;8.70;99.90
77829;DHT22;67019;51.034;3.728;2023-12-20T15:54:34;8.80;99.90